sensor_id;sensor_type;location;lat;lon;timestamp;pressure;altitude;pressure_sealevel;temperature;humidity
80248;BME280;69560;52.206;21.018;2023-04-26T00:00:10;99336.29;;;10.75;59.59
80248;BME280;69560;52.206;21.018;2023-04-26T00:02:57;99339.29;;;10.73;59.36
80248;BME280;69560;52.206;21.018;2023-04-26T00:05:25;99348.39;;;10.69;59.66
80248;BME280;69560;52.206;21.018;2023-04-26T00:07:54;99347.48;;;10.66;59.70
80248;BME280;69560;52.206;21.018;2023-04-26T00:10:21;99355.33;;;10.61;59.93
80248;BME280;69560;52.206;21.018;2023-04-26T00:12:48;99353.88;;;10.57;59.50
80248;BME280;69560;52.206;21.018;2023-04-26T00:15:15;99359.70;;;10.52;59.52
80248;BME280;69560;52.206;21.018;2023-04-26T00:17:41;99358.83;;;10.49;59.63
80248;BME280;69560;52.206;21.018;2023-04-26T00:20:09;99357.48;;;10.48;59.65
80248;BME280;69560;52.206;21.018;2023-04-26T00:22:38;99359.60;;;10.46;59.90
80248;BME280;69560;52.206;21.018;2023-04-26T00:25:05;99355.64;;;10.46;59.70
80248;BME280;69560;52.206;21.018;2023-04-26T00:27:32;99365.45;;;10.44;59.69
80248;BME280;69560;52.206;21.018;2023-04-26T00:29:59;99366.30;;;10.42;59.87
80248;BME280;69560;52.206;21.018;2023-04-26T00:32:25;99371.83;;;10.40;59.68
80248;BME280;69560;52.206;21.018;2023-04-26T00:34:52;99374.84;;;10.38;59.82
80248;BME280;69560;52.206;21.018;2023-04-26T00:37:18;99381.86;;;10.36;59.49
80248;BME280;69560;52.206;21.018;2023-04-26T00:39:48;99384.23;;;10.32;59.61
80248;BME280;69560;52.206;21.018;2023-04-26T00:42:15;99387.77;;;10.29;59.50
80248;BME280;69560;52.206;21.018;2023-04-26T00:44:42;99390.06;;;10.28;59.73
80248;BME280;69560;52.206;21.018;2023-04-26T00:47:08;99395.28;;;10.27;59.68
80248;BME280;69560;52.206;21.018;2023-04-26T00:49:35;99393.39;;;10.28;59.54
80248;BME280;69560;52.206;21.018;2023-04-26T00:52:02;99392.92;;;10.28;59.77
80248;BME280;69560;52.206;21.018;2023-04-26T00:54:29;99398.31;;;10.30;59.59
80248;BME280;69560;52.206;21.018;2023-04-26T00:56:56;99397.59;;;10.29;59.74
80248;BME280;69560;52.206;21.018;2023-04-26T00:59:23;99398.37;;;10.27;59.38
80248;BME280;69560;52.206;21.018;2023-04-26T01:01:52;99403.42;;;10.24;59.45
80248;BME280;69560;52.206;21.018;2023-04-26T01:04:19;99399.90;;;10.20;59.32
80248;BME280;69560;52.206;21.018;2023-04-26T01:06:46;99404.86;;;10.16;59.08
80248;BME280;69560;52.206;21.018;2023-04-26T01:09:13;99405.08;;;10.12;59.20
80248;BME280;69560;52.206;21.018;2023-04-26T01:11:41;99411.30;;;10.10;59.23
80248;BME280;69560;52.206;21.018;2023-04-26T01:14:09;99408.23;;;10.06;59.15
80248;BME280;69560;52.206;21.018;2023-04-26T01:16:37;99414.70;;;10.04;59.03
80248;BME280;69560;52.206;21.018;2023-04-26T01:19:08;99415.82;;;10.03;59.21
80248;BME280;69560;52.206;21.018;2023-04-26T01:21:39;99420.33;;;10.04;59.15
80248;BME280;69560;52.206;21.018;2023-04-26T01:24:08;99421.36;;;10.05;59.18
80248;BME280;69560;52.206;21.018;2023-04-26T01:26:36;99424.21;;;10.05;59.12
80248;BME280;69560;52.206;21.018;2023-04-26T01:29:20;99423.17;;;10.04;58.71
80248;BME280;69560;52.206;21.018;2023-04-26T01:31:47;99425.54;;;10.03;58.77
80248;BME280;69560;52.206;21.018;2023-04-26T01:34:15;99427.33;;;10.00;58.83
80248;BME280;69560;52.206;21.018;2023-04-26T01:36:41;99423.85;;;9.99;58.95
80248;BME280;69560;52.206;21.018;2023-04-26T01:39:11;99425.49;;;9.96;59.11
80248;BME280;69560;52.206;21.018;2023-04-26T01:41:38;99424.74;;;9.92;59.06
80248;BME280;69560;52.206;21.018;2023-04-26T01:44:05;99424.33;;;9.90;58.94
80248;BME280;69560;52.206;21.018;2023-04-26T01:46:34;99425.27;;;9.89;59.30
80248;BME280;69560;52.206;21.018;2023-04-26T01:49:01;99425.04;;;9.89;58.92
80248;BME280;69560;52.206;21.018;2023-04-26T01:51:28;99426.17;;;9.92;58.87
80248;BME280;69560;52.206;21.018;2023-04-26T01:53:55;99426.66;;;9.93;59.19
80248;BME280;69560;52.206;21.018;2023-04-26T01:56:23;99423.16;;;9.93;58.85
80248;BME280;69560;52.206;21.018;2023-04-26T01:58:50;99429.11;;;9.94;59.05
80248;BME280;69560;52.206;21.018;2023-04-26T02:01:17;99426.42;;;9.94;59.03
80248;BME280;69560;52.206;21.018;2023-04-26T02:03:43;99427.11;;;9.92;59.11
80248;BME280;69560;52.206;21.018;2023-04-26T02:06:10;99424.88;;;9.90;59.02
80248;BME280;69560;52.206;21.018;2023-04-26T02:08:37;99429.77;;;9.88;59.03
80248;BME280;69560;52.206;21.018;2023-04-26T02:11:03;99428.80;;;9.86;59.06
80248;BME280;69560;52.206;21.018;2023-04-26T02:13:30;99427.36;;;9.83;59.01
80248;BME280;69560;52.206;21.018;2023-04-26T02:15:57;99425.98;;;9.81;59.30
80248;BME280;69560;52.206;21.018;2023-04-26T02:18:24;99430.81;;;9.80;59.30
80248;BME280;69560;52.206;21.018;2023-04-26T02:20:52;99433.36;;;9.81;59.22
80248;BME280;69560;52.206;21.018;2023-04-26T02:23:18;99435.72;;;9.83;59.03
80248;BME280;69560;52.206;21.018;2023-04-26T02:25:45;99436.86;;;9.85;59.31
80248;BME280;69560;52.206;21.018;2023-04-26T02:28:15;99435.85;;;9.88;59.50
80248;BME280;69560;52.206;21.018;2023-04-26T02:30:42;99433.82;;;9.90;59.53
80248;BME280;69560;52.206;21.018;2023-04-26T02:33:09;99436.19;;;9.89;59.54
80248;BME280;69560;52.206;21.018;2023-04-26T02:35:36;99436.27;;;9.89;59.28
80248;BME280;69560;52.206;21.018;2023-04-26T02:38:03;99431.19;;;9.88;59.39
80248;BME280;69560;52.206;21.018;2023-04-26T02:40:30;99432.70;;;9.88;59.43
80248;BME280;69560;52.206;21.018;2023-04-26T02:42:56;99430.46;;;9.87;59.69
80248;BME280;69560;52.206;21.018;2023-04-26T02:45:23;99429.91;;;9.86;59.46
80248;BME280;69560;52.206;21.018;2023-04-26T02:47:50;99432.19;;;9.85;59.82
80248;BME280;69560;52.206;21.018;2023-04-26T02:50:17;99435.60;;;9.85;59.63
80248;BME280;69560;52.206;21.018;2023-04-26T02:52:44;99433.25;;;9.87;59.80
80248;BME280;69560;52.206;21.018;2023-04-26T02:55:10;99433.89;;;9.90;59.58
80248;BME280;69560;52.206;21.018;2023-04-26T02:57:37;99436.63;;;9.93;59.56
80248;BME280;69560;52.206;21.018;2023-04-26T03:00:05;99437.60;;;9.96;59.70
80248;BME280;69560;52.206;21.018;2023-04-26T03:02:33;99440.52;;;9.98;59.70
80248;BME280;69560;52.206;21.018;2023-04-26T03:05:03;99443.63;;;9.99;59.62
80248;BME280;69560;52.206;21.018;2023-04-26T03:07:32;99437.45;;;9.95;59.49
80248;BME280;69560;52.206;21.018;2023-04-26T03:09:59;99441.05;;;9.93;59.67
80248;BME280;69560;52.206;21.018;2023-04-26T03:12:27;99438.96;;;9.90;59.42
80248;BME280;69560;52.206;21.018;2023-04-26T03:14:54;99439.59;;;9.89;59.49
80248;BME280;69560;52.206;21.018;2023-04-26T03:17:20;99437.60;;;9.88;59.74
80248;BME280;69560;52.206;21.018;2023-04-26T03:19:47;99441.70;;;9.87;59.46
80248;BME280;69560;52.206;21.018;2023-04-26T03:22:17;99443.73;;;9.84;59.11
80248;BME280;69560;52.206;21.018;2023-04-26T03:24:44;99440.54;;;9.80;59.18
80248;BME280;69560;52.206;21.018;2023-04-26T03:27:12;99442.83;;;9.80;59.15
80248;BME280;69560;52.206;21.018;2023-04-26T03:29:42;99443.48;;;9.80;59.02
80248;BME280;69560;52.206;21.018;2023-04-26T03:32:12;99441.98;;;9.81;59.18
80248;BME280;69560;52.206;21.018;2023-04-26T03:34:46;99445.20;;;9.80;58.76
80248;BME280;69560;52.206;21.018;2023-04-26T03:37:14;99445.42;;;9.78;58.68
80248;BME280;69560;52.206;21.018;2023-04-26T03:39:40;99448.71;;;9.75;58.41
80248;BME280;69560;52.206;21.018;2023-04-26T03:42:07;99445.67;;;9.72;58.28
80248;BME280;69560;52.206;21.018;2023-04-26T03:44:34;99448.24;;;9.68;57.99
80248;BME280;69560;52.206;21.018;2023-04-26T03:47:00;99456.80;;;9.61;57.86
80248;BME280;69560;52.206;21.018;2023-04-26T03:49:28;99450.58;;;9.55;58.00
80248;BME280;69560;52.206;21.018;2023-04-26T03:51:54;99456.92;;;9.50;57.53
80248;BME280;69560;52.206;21.018;2023-04-26T03:54:21;99458.60;;;9.44;57.22
80248;BME280;69560;52.206;21.018;2023-04-26T03:56:47;99457.82;;;9.38;57.46
80248;BME280;69560;52.206;21.018;2023-04-26T03:59:14;99462.11;;;9.33;57.42
80248;BME280;69560;52.206;21.018;2023-04-26T04:01:41;99458.75;;;9.29;57.46
80248;BME280;69560;52.206;21.018;2023-04-26T04:04:08;99461.59;;;9.23;57.38
80248;BME280;69560;52.206;21.018;2023-04-26T04:06:35;99462.88;;;9.18;57.25
80248;BME280;69560;52.206;21.018;2023-04-26T04:09:01;99467.45;;;9.12;57.07
80248;BME280;69560;52.206;21.018;2023-04-26T04:11:30;99470.73;;;9.09;57.25
80248;BME280;69560;52.206;21.018;2023-04-26T04:13:58;99471.29;;;9.08;57.12
80248;BME280;69560;52.206;21.018;2023-04-26T04:16:25;99467.95;;;9.07;57.18
80248;BME280;69560;52.206;21.018;2023-04-26T04:18:52;99471.73;;;9.06;56.85
80248;BME280;69560;52.206;21.018;2023-04-26T04:21:18;99468.29;;;9.02;57.03
80248;BME280;69560;52.206;21.018;2023-04-26T04:23:45;99472.77;;;9.00;57.01
80248;BME280;69560;52.206;21.018;2023-04-26T04:26:12;99469.83;;;9.00;57.22
80248;BME280;69560;52.206;21.018;2023-04-26T04:28:39;99470.38;;;9.00;57.39
80248;BME280;69560;52.206;21.018;2023-04-26T04:31:10;99472.59;;;9.00;57.29
80248;BME280;69560;52.206;21.018;2023-04-26T04:33:37;99474.33;;;8.98;56.91
80248;BME280;69560;52.206;21.018;2023-04-26T04:36:03;99474.39;;;8.98;57.33
80248;BME280;69560;52.206;21.018;2023-04-26T04:38:32;99474.24;;;8.99;57.31
80248;BME280;69560;52.206;21.018;2023-04-26T04:40:58;99476.95;;;9.00;57.23
80248;BME280;69560;52.206;21.018;2023-04-26T04:43:25;99482.11;;;9.02;57.65
80248;BME280;69560;52.206;21.018;2023-04-26T04:45:53;99481.75;;;9.04;57.53
80248;BME280;69560;52.206;21.018;2023-04-26T04:48:20;99485.08;;;9.06;57.42
80248;BME280;69560;52.206;21.018;2023-04-26T04:50:48;99485.88;;;9.06;57.21
80248;BME280;69560;52.206;21.018;2023-04-26T04:53:15;99489.29;;;9.07;57.19
80248;BME280;69560;52.206;21.018;2023-04-26T04:55:42;99492.23;;;9.09;57.72
80248;BME280;69560;52.206;21.018;2023-04-26T04:58:09;99495.11;;;9.11;57.63
80248;BME280;69560;52.206;21.018;2023-04-26T05:00:37;99497.77;;;9.15;57.48
80248;BME280;69560;52.206;21.018;2023-04-26T05:03:04;99502.39;;;9.17;57.61
80248;BME280;69560;52.206;21.018;2023-04-26T05:05:30;99505.25;;;9.19;57.29
80248;BME280;69560;52.206;21.018;2023-04-26T05:07:57;99506.63;;;9.20;57.38
80248;BME280;69560;52.206;21.018;2023-04-26T05:10:24;99509.57;;;9.22;57.31
80248;BME280;69560;52.206;21.018;2023-04-26T05:12:51;99508.83;;;9.26;57.20
80248;BME280;69560;52.206;21.018;2023-04-26T05:15:17;99517.27;;;9.30;57.15
80248;BME280;69560;52.206;21.018;2023-04-26T05:17:44;99513.98;;;9.33;56.96
80248;BME280;69560;52.206;21.018;2023-04-26T05:20:11;99516.75;;;9.35;56.97
80248;BME280;69560;52.206;21.018;2023-04-26T05:22:38;99518.21;;;9.37;56.59
80248;BME280;69560;52.206;21.018;2023-04-26T05:25:06;99519.16;;;9.37;56.75
80248;BME280;69560;52.206;21.018;2023-04-26T05:27:33;99520.66;;;9.37;56.43
80248;BME280;69560;52.206;21.018;2023-04-26T05:30:00;99524.27;;;9.35;56.53
80248;BME280;69560;52.206;21.018;2023-04-26T05:32:27;99529.12;;;9.37;56.18
80248;BME280;69560;52.206;21.018;2023-04-26T05:34:53;99530.73;;;9.40;56.21
80248;BME280;69560;52.206;21.018;2023-04-26T05:37:21;99533.88;;;9.43;56.16
80248;BME280;69560;52.206;21.018;2023-04-26T05:39:48;99544.99;;;9.47;56.25
80248;BME280;69560;52.206;21.018;2023-04-26T05:42:14;99542.10;;;9.49;56.17
80248;BME280;69560;52.206;21.018;2023-04-26T05:44:41;99539.50;;;9.50;55.94
80248;BME280;69560;52.206;21.018;2023-04-26T05:47:09;99537.89;;;9.54;55.84
80248;BME280;69560;52.206;21.018;2023-04-26T05:49:36;99542.54;;;9.59;55.92
80248;BME280;69560;52.206;21.018;2023-04-26T05:52:03;99536.83;;;9.64;56.00
80248;BME280;69560;52.206;21.018;2023-04-26T05:54:29;99540.67;;;9.70;55.80
80248;BME280;69560;52.206;21.018;2023-04-26T05:56:56;99543.87;;;9.72;56.02
80248;BME280;69560;52.206;21.018;2023-04-26T05:59:23;99541.45;;;9.75;55.55
80248;BME280;69560;52.206;21.018;2023-04-26T06:01:49;99545.08;;;9.81;55.54
80248;BME280;69560;52.206;21.018;2023-04-26T06:04:17;99542.63;;;9.88;55.92
80248;BME280;69560;52.206;21.018;2023-04-26T06:06:43;99540.09;;;9.95;55.92
80248;BME280;69560;52.206;21.018;2023-04-26T06:09:10;99540.17;;;10.02;55.79
80248;BME280;69560;52.206;21.018;2023-04-26T06:11:37;99540.34;;;10.11;55.66
80248;BME280;69560;52.206;21.018;2023-04-26T06:14:03;99542.80;;;10.18;55.24
80248;BME280;69560;52.206;21.018;2023-04-26T06:16:30;99541.84;;;10.24;55.35
80248;BME280;69560;52.206;21.018;2023-04-26T06:18:56;99544.54;;;10.34;55.33
80248;BME280;69560;52.206;21.018;2023-04-26T06:21:23;99539.08;;;10.43;54.98
80248;BME280;69560;52.206;21.018;2023-04-26T06:23:50;99543.11;;;10.53;55.09
80248;BME280;69560;52.206;21.018;2023-04-26T06:26:16;99545.51;;;10.65;55.17
80248;BME280;69560;52.206;21.018;2023-04-26T06:28:43;99545.84;;;10.77;55.08
80248;BME280;69560;52.206;21.018;2023-04-26T06:31:10;99540.60;;;10.87;54.57
80248;BME280;69560;52.206;21.018;2023-04-26T06:33:36;99543.05;;;10.97;54.40
80248;BME280;69560;52.206;21.018;2023-04-26T06:36:03;99544.38;;;11.06;54.26
80248;BME280;69560;52.206;21.018;2023-04-26T06:38:30;99548.30;;;11.13;53.96
80248;BME280;69560;52.206;21.018;2023-04-26T06:40:56;99552.79;;;11.21;53.84
80248;BME280;69560;52.206;21.018;2023-04-26T06:43:23;99555.11;;;11.28;53.51
80248;BME280;69560;52.206;21.018;2023-04-26T06:45:50;99549.77;;;11.37;53.38
80248;BME280;69560;52.206;21.018;2023-04-26T06:48:16;99557.74;;;11.47;53.29
80248;BME280;69560;52.206;21.018;2023-04-26T06:50:43;99551.54;;;11.58;53.27
80248;BME280;69560;52.206;21.018;2023-04-26T06:53:10;99556.92;;;11.70;53.33
80248;BME280;69560;52.206;21.018;2023-04-26T06:55:37;99554.77;;;11.83;53.06
80248;BME280;69560;52.206;21.018;2023-04-26T06:58:03;99557.32;;;11.92;52.63
80248;BME280;69560;52.206;21.018;2023-04-26T07:00:30;99557.83;;;12.01;52.56
80248;BME280;69560;52.206;21.018;2023-04-26T07:02:57;99551.80;;;12.09;52.03
80248;BME280;69560;52.206;21.018;2023-04-26T07:05:24;99559.05;;;12.17;51.72
80248;BME280;69560;52.206;21.018;2023-04-26T07:07:50;99558.98;;;12.25;51.28
80248;BME280;69560;52.206;21.018;2023-04-26T07:10:17;99557.56;;;12.33;51.02
80248;BME280;69560;52.206;21.018;2023-04-26T07:12:52;99555.27;;;12.41;50.64
80248;BME280;69560;52.206;21.018;2023-04-26T07:15:19;99561.40;;;12.49;50.37
80248;BME280;69560;52.206;21.018;2023-04-26T07:17:45;99565.14;;;12.57;49.98
80248;BME280;69560;52.206;21.018;2023-04-26T07:20:12;99567.35;;;12.59;49.49
80248;BME280;69560;52.206;21.018;2023-04-26T07:22:41;99564.98;;;12.64;49.46
80248;BME280;69560;52.206;21.018;2023-04-26T07:25:08;99561.95;;;12.72;49.19
80248;BME280;69560;52.206;21.018;2023-04-26T07:27:34;99565.05;;;12.81;49.00
80248;BME280;69560;52.206;21.018;2023-04-26T07:30:01;99559.48;;;12.90;48.71
80248;BME280;69560;52.206;21.018;2023-04-26T07:32:28;99563.36;;;12.97;48.59
80248;BME280;69560;52.206;21.018;2023-04-26T07:34:55;99563.85;;;13.04;48.48
80248;BME280;69560;52.206;21.018;2023-04-26T07:37:22;99562.17;;;13.14;48.45
80248;BME280;69560;52.206;21.018;2023-04-26T07:39:49;99563.19;;;13.22;48.37
80248;BME280;69560;52.206;21.018;2023-04-26T07:42:16;99567.55;;;13.27;47.82
80248;BME280;69560;52.206;21.018;2023-04-26T07:44:42;99567.80;;;13.31;47.59
80248;BME280;69560;52.206;21.018;2023-04-26T07:47:12;99575.10;;;13.33;47.26
80248;BME280;69560;52.206;21.018;2023-04-26T07:49:39;99575.88;;;13.36;47.25
80248;BME280;69560;52.206;21.018;2023-04-26T07:52:09;99575.71;;;13.41;47.25
80248;BME280;69560;52.206;21.018;2023-04-26T07:54:39;99578.74;;;13.41;46.62
80248;BME280;69560;52.206;21.018;2023-04-26T07:57:05;99585.05;;;13.34;46.07
80248;BME280;69560;52.206;21.018;2023-04-26T07:59:32;99586.73;;;13.28;45.74
80248;BME280;69560;52.206;21.018;2023-04-26T08:02:02;99584.04;;;13.25;45.51
80248;BME280;69560;52.206;21.018;2023-04-26T08:04:30;99589.04;;;13.26;45.64
80248;BME280;69560;52.206;21.018;2023-04-26T08:07:00;99588.71;;;13.31;45.95
80248;BME280;69560;52.206;21.018;2023-04-26T08:09:28;99587.75;;;13.36;45.90
80248;BME280;69560;52.206;21.018;2023-04-26T08:11:56;99592.05;;;13.40;45.61
80248;BME280;69560;52.206;21.018;2023-04-26T08:14:23;99592.66;;;13.43;45.48
80248;BME280;69560;52.206;21.018;2023-04-26T08:16:49;99586.79;;;13.42;45.10
80248;BME280;69560;52.206;21.018;2023-04-26T08:19:17;99593.48;;;13.37;45.08
80248;BME280;69560;52.206;21.018;2023-04-26T08:21:43;99595.48;;;13.31;44.70
80248;BME280;69560;52.206;21.018;2023-04-26T08:24:10;99595.89;;;13.24;44.54
80248;BME280;69560;52.206;21.018;2023-04-26T08:26:37;99593.60;;;13.14;44.29
80248;BME280;69560;52.206;21.018;2023-04-26T08:29:03;99594.15;;;13.03;44.04
80248;BME280;69560;52.206;21.018;2023-04-26T08:31:30;99594.70;;;12.95;44.01
80248;BME280;69560;52.206;21.018;2023-04-26T08:33:57;99593.59;;;12.93;44.18
80248;BME280;69560;52.206;21.018;2023-04-26T08:36:23;99593.27;;;12.96;44.29
80248;BME280;69560;52.206;21.018;2023-04-26T08:38:50;99593.82;;;12.96;44.64
80248;BME280;69560;52.206;21.018;2023-04-26T08:41:21;99594.45;;;12.96;44.45
80248;BME280;69560;52.206;21.018;2023-04-26T08:43:48;99592.79;;;12.93;44.21
80248;BME280;69560;52.206;21.018;2023-04-26T08:46:17;99597.42;;;12.87;44.14
80248;BME280;69560;52.206;21.018;2023-04-26T08:48:48;99599.25;;;12.80;43.91
80248;BME280;69560;52.206;21.018;2023-04-26T08:51:18;99604.16;;;12.77;44.07
80248;BME280;69560;52.206;21.018;2023-04-26T08:53:45;99597.73;;;12.74;43.95
80248;BME280;69560;52.206;21.018;2023-04-26T08:56:13;99604.95;;;12.71;43.80
80248;BME280;69560;52.206;21.018;2023-04-26T08:58:39;99607.02;;;12.64;43.48
80248;BME280;69560;52.206;21.018;2023-04-26T09:01:08;99610.75;;;12.53;43.29
80248;BME280;69560;52.206;21.018;2023-04-26T09:03:35;99611.92;;;12.42;43.06
80248;BME280;69560;52.206;21.018;2023-04-26T09:06:02;99617.70;;;12.31;43.15
80248;BME280;69560;52.206;21.018;2023-04-26T09:08:29;99618.95;;;12.21;43.13
80248;BME280;69560;52.206;21.018;2023-04-26T09:10:56;99621.55;;;12.13;43.27
80248;BME280;69560;52.206;21.018;2023-04-26T09:13:27;99623.11;;;12.06;43.48
80248;BME280;69560;52.206;21.018;2023-04-26T09:15:54;99625.14;;;11.97;43.32
80248;BME280;69560;52.206;21.018;2023-04-26T09:18:22;99623.02;;;11.84;43.50
80248;BME280;69560;52.206;21.018;2023-04-26T09:21:05;99627.15;;;11.81;43.78
80248;BME280;69560;52.206;21.018;2023-04-26T09:23:33;99622.93;;;11.79;43.81
80248;BME280;69560;52.206;21.018;2023-04-26T09:26:19;99630.30;;;11.76;43.69
80248;BME280;69560;52.206;21.018;2023-04-26T09:28:46;99641.63;;;11.71;43.53
80248;BME280;69560;52.206;21.018;2023-04-26T09:31:37;99641.94;;;11.61;43.08
80248;BME280;69560;52.206;21.018;2023-04-26T09:34:04;99645.19;;;11.47;43.12
80248;BME280;69560;52.206;21.018;2023-04-26T09:36:31;99642.43;;;11.39;43.38
80248;BME280;69560;52.206;21.018;2023-04-26T09:38:59;99644.85;;;11.32;43.34
80248;BME280;69560;52.206;21.018;2023-04-26T09:41:44;99643.00;;;11.26;43.33
80248;BME280;69560;52.206;21.018;2023-04-26T09:44:21;99640.90;;;11.21;43.49
80248;BME280;69560;52.206;21.018;2023-04-26T09:46:58;99642.71;;;11.20;43.64
80248;BME280;69560;52.206;21.018;2023-04-26T09:49:26;99645.37;;;11.26;44.01
80248;BME280;69560;52.206;21.018;2023-04-26T09:52:04;99645.10;;;11.34;43.66
80248;BME280;69560;52.206;21.018;2023-04-26T09:54:39;99646.38;;;11.35;43.33
80248;BME280;69560;52.206;21.018;2023-04-26T09:57:06;99645.91;;;11.36;43.20
80248;BME280;69560;52.206;21.018;2023-04-26T09:59:41;99651.95;;;11.37;43.14
80248;BME280;69560;52.206;21.018;2023-04-26T10:02:16;99643.94;;;11.36;42.85
80248;BME280;69560;52.206;21.018;2023-04-26T10:04:44;99643.53;;;11.35;42.64
80248;BME280;69560;52.206;21.018;2023-04-26T10:07:14;99645.27;;;11.34;42.57
80248;BME280;69560;52.206;21.018;2023-04-26T10:09:42;99642.26;;;11.34;42.45
80248;BME280;69560;52.206;21.018;2023-04-26T10:12:15;99648.98;;;11.34;42.03
80248;BME280;69560;52.206;21.018;2023-04-26T10:14:44;99642.66;;;11.35;41.78
80248;BME280;69560;52.206;21.018;2023-04-26T10:17:14;99642.42;;;11.49;42.18
80248;BME280;69560;52.206;21.018;2023-04-26T10:19:42;99640.46;;;11.65;42.26
80248;BME280;69560;52.206;21.018;2023-04-26T10:22:15;99635.55;;;11.78;42.02
80248;BME280;69560;52.206;21.018;2023-04-26T10:24:43;99632.96;;;11.88;41.71
80248;BME280;69560;52.206;21.018;2023-04-26T10:27:10;99644.67;;;11.94;41.68
80248;BME280;69560;52.206;21.018;2023-04-26T10:30:07;99643.81;;;11.99;41.26
80248;BME280;69560;52.206;21.018;2023-04-26T10:35:28;99653.35;;;12.00;40.56
80248;BME280;69560;52.206;21.018;2023-04-26T10:38:16;99647.81;;;12.06;40.65
80248;BME280;69560;52.206;21.018;2023-04-26T10:40:43;99654.52;;;12.14;40.40
80248;BME280;69560;52.206;21.018;2023-04-26T10:45:42;99653.21;;;12.28;40.11
80248;BME280;69560;52.206;21.018;2023-04-26T11:01:33;99670.02;;;12.47;39.63
80248;BME280;69560;52.206;21.018;2023-04-26T11:04:06;99671.06;;;12.48;39.53
80248;BME280;69560;52.206;21.018;2023-04-26T11:06:52;99671.70;;;12.46;39.42
80248;BME280;69560;52.206;21.018;2023-04-26T11:12:09;99676.85;;;12.44;39.30
80248;BME280;69560;52.206;21.018;2023-04-26T11:14:36;99680.04;;;12.46;39.17
80248;BME280;69560;52.206;21.018;2023-04-26T11:17:04;99678.98;;;12.43;38.84
80248;BME280;69560;52.206;21.018;2023-04-26T11:19:31;99684.15;;;12.41;38.77
80248;BME280;69560;52.206;21.018;2023-04-26T11:21:59;99688.11;;;12.37;38.74
80248;BME280;69560;52.206;21.018;2023-04-26T11:24:30;99694.52;;;12.30;38.48
80248;BME280;69560;52.206;21.018;2023-04-26T11:26:57;99696.80;;;12.19;38.34
80248;BME280;69560;52.206;21.018;2023-04-26T11:29:24;99694.70;;;12.10;38.15
80248;BME280;69560;52.206;21.018;2023-04-26T11:31:56;99703.08;;;12.03;38.09
80248;BME280;69560;52.206;21.018;2023-04-26T11:34:37;99699.06;;;11.95;37.88
80248;BME280;69560;52.206;21.018;2023-04-26T11:37:05;99707.45;;;11.88;37.86
80248;BME280;69560;52.206;21.018;2023-04-26T11:39:35;99703.05;;;11.83;37.82
80248;BME280;69560;52.206;21.018;2023-04-26T11:42:06;99702.23;;;11.80;38.00
80248;BME280;69560;52.206;21.018;2023-04-26T11:44:33;99697.64;;;11.80;38.07
80248;BME280;69560;52.206;21.018;2023-04-26T11:47:01;99699.55;;;11.81;38.25
80248;BME280;69560;52.206;21.018;2023-04-26T11:49:31;99701.79;;;11.83;38.41
80248;BME280;69560;52.206;21.018;2023-04-26T11:51:58;99699.79;;;11.83;38.42
80248;BME280;69560;52.206;21.018;2023-04-26T11:54:32;99700.04;;;11.83;38.56
80248;BME280;69560;52.206;21.018;2023-04-26T11:56:59;99700.42;;;11.82;38.61
80248;BME280;69560;52.206;21.018;2023-04-26T11:59:27;99703.55;;;11.88;38.96
80248;BME280;69560;52.206;21.018;2023-04-26T12:01:56;99709.83;;;11.88;38.79
80248;BME280;69560;52.206;21.018;2023-04-26T12:04:30;99711.21;;;11.79;38.49
80248;BME280;69560;52.206;21.018;2023-04-26T12:06:57;99710.54;;;11.73;38.50
80248;BME280;69560;52.206;21.018;2023-04-26T12:09:26;99712.42;;;11.70;38.47
80248;BME280;69560;52.206;21.018;2023-04-26T12:11:57;99708.68;;;11.69;38.49
80248;BME280;69560;52.206;21.018;2023-04-26T12:14:38;99712.91;;;11.63;38.33
80248;BME280;69560;52.206;21.018;2023-04-26T12:17:05;99709.14;;;11.61;38.60
80248;BME280;69560;52.206;21.018;2023-04-26T12:22:00;99718.90;;;11.58;38.33
80248;BME280;69560;52.206;21.018;2023-04-26T12:24:28;99722.48;;;11.58;38.22
80248;BME280;69560;52.206;21.018;2023-04-26T12:27:05;99721.04;;;11.57;38.29
80248;BME280;69560;52.206;21.018;2023-04-26T12:29:32;99718.55;;;11.64;38.43
80248;BME280;69560;52.206;21.018;2023-04-26T12:31:59;99721.31;;;11.70;38.44
80248;BME280;69560;52.206;21.018;2023-04-26T12:34:26;99722.38;;;11.76;38.43
80248;BME280;69560;52.206;21.018;2023-04-26T12:36:53;99724.02;;;11.82;38.38
80248;BME280;69560;52.206;21.018;2023-04-26T12:39:20;99729.75;;;11.86;38.28
80248;BME280;69560;52.206;21.018;2023-04-26T12:41:46;99734.20;;;11.87;38.06
80248;BME280;69560;52.206;21.018;2023-04-26T12:44:13;99732.98;;;11.83;37.90
80248;BME280;69560;52.206;21.018;2023-04-26T12:46:40;99735.02;;;11.80;37.83
80248;BME280;69560;52.206;21.018;2023-04-26T12:49:06;99738.84;;;11.78;37.97
80248;BME280;69560;52.206;21.018;2023-04-26T12:51:33;99736.59;;;11.77;37.82
80248;BME280;69560;52.206;21.018;2023-04-26T12:54:00;99738.82;;;11.76;37.65
80248;BME280;69560;52.206;21.018;2023-04-26T12:56:28;99743.81;;;11.76;37.60
80248;BME280;69560;52.206;21.018;2023-04-26T12:58:54;99743.86;;;11.83;37.79
80248;BME280;69560;52.206;21.018;2023-04-26T13:01:21;99744.77;;;11.90;37.58
80248;BME280;69560;52.206;21.018;2023-04-26T13:03:48;99747.41;;;11.93;37.37
80248;BME280;69560;52.206;21.018;2023-04-26T13:06:15;99752.19;;;11.94;37.15
80248;BME280;69560;52.206;21.018;2023-04-26T13:08:42;99752.41;;;11.93;36.89
80248;BME280;69560;52.206;21.018;2023-04-26T13:11:08;99752.96;;;11.92;36.88
80248;BME280;69560;52.206;21.018;2023-04-26T13:13:35;99753.91;;;11.90;36.68
80248;BME280;69560;52.206;21.018;2023-04-26T13:16:02;99756.76;;;11.87;36.78
80248;BME280;69560;52.206;21.018;2023-04-26T13:18:28;99763.23;;;11.83;36.75
80248;BME280;69560;52.206;21.018;2023-04-26T13:20:55;99761.21;;;11.79;36.66